Date,TemperatureHighF,TemperatureAvgF,TemperatureLowF,DewpointHighF,DewpointAvgF,DewpointLowF,HumidityHigh,HumidityAvg,HumidityLow,PressureMaxIn,PressureMinIn,WindSpeedMaxMPH,WindSpeedAvgMPH,GustSpeedMaxMPH,PrecipitationSumIn
2013-1-1,28,15,5,16,10,1,89,79,58,30.66,30.40,6,0,6,0.00
2013-1-2,28,13,2,14,6,-1,87,77,53,30.72,30.57,7,0,7,0.00
2013-1-3,28,11,-1,11,3,-5,88,72,47,30.86,30.71,9,0,9,0.00
2013-1-4,24,10,0,9,3,-4,84,73,52,30.77,30.61,6,0,6,0.00
2013-1-5,26,10,-1,11,2,-5,85,73,50,30.87,30.72,8,0,8,0.00
2013-1-6,20,9,-1,9,3,-5,86,76,59,30.82,30.55,7,0,7,0.00
2013-1-7,26,12,2,12,6,-2,86,76,55,30.58,30.42,13,0,13,0.00
2013-1-8,32,16,5,16,9,1,86,73,50,30.72,30.47,6,0,6,0.01
2013-1-9,34,19,6,19,12,2,89,74,51,30.73,30.39,8,0,8,0.00
2013-1-10,44,25,10,31,17,6,87,74,51,30.39,29.63,17,1,17,0.00
2013-1-11,41,27,12,31,14,3,91,60,32,30.08,29.56,15,2,17,0.01
2013-1-12,23,11,3,8,3,-2,86,70,48,30.36,30.08,7,0,8,0.00
2013-1-13,22,10,3,11,4,-2,87,77,58,30.46,30.34,7,0,8,0.03
2013-1-14,19,5,-7,5,-2,-11,86,71,46,30.71,30.46,8,1,8,0.00
2013-1-15,20,8,-4,3,-2,-8,83,66,44,30.92,30.71,7,1,7,0.00
2013-1-16,30,11,0,10,3,-4,84,69,43,30.97,30.82,8,0,8,0.00
2013-1-17,28,13,3,13,6,-2,83,72,52,30.98,30.82,6,0,7,0.00
2013-1-18,29,14,2,16,7,-2,86,74,54,30.86,30.71,7,0,7,0.00
2013-1-19,32,16,4,17,9,0,85,74,51,30.87,30.71,8,1,8,0.00
2013-1-20,29,15,2,16,8,-2,87,76,56,30.78,30.61,7,0,7,0.00
2013-1-21,33,17,3,17,9,-1,87,74,50,30.77,30.63,9,1,9,0.00
2013-1-22,36,17,5,18,10,1,88,73,46,30.75,30.63,6,0,7,0.00
2013-1-23,31,17,6,16,10,2,86,74,52,30.77,30.66,7,0,7,0.00
2013-1-24,33,26,17,24,18,12,82,73,61,30.68,30.51,5,0,5,0.00
2013-1-25,36,32,29,31,28,24,92,85,77,30.55,30.35,5,0,5,0.01
2013-1-26,41,36,32,38,34,31,95,93,88,30.35,29.90,5,0,5,0.26
2013-1-27,48,38,34,40,35,32,96,90,74,30.00,29.75,15,0,15,0.05
2013-1-28,40,35,28,36,29,16,94,80,54,29.93,29.72,15,1,17,0.08
2013-1-29,35,26,20,22,19,16,88,74,53,30.27,29.92,10,0,11,0.00
2013-1-30,35,26,16,22,19,13,92,74,49,30.40,30.27,6,0,7,0.00
2013-1-31,45,30,18,29,23,15,93,76,52,30.53,30.37,6,0,6,0.00
2013-2-1,46,31,19,29,24,17,94,76,47,30.51,30.37,8,0,8,0.01
2013-2-2,48,32,19,28,24,17,94,73,43,30.64,30.49,9,0,9,0.00
2013-2-3,42,32,24,28,25,22,93,77,48,30.49,30.23,4,0,4,0.00
2013-2-4,47,32,20,30,24,18,94,77,50,30.35,30.23,9,0,9,0.00
2013-2-5,52,35,22,28,24,19,93,69,33,30.31,30.06,9,0,11,0.01
2013-2-6,49,35,26,32,27,23,90,74,45,30.20,29.99,9,1,9,0.00
2013-2-7,52,35,22,29,24,19,93,69,27,30.33,30.11,11,1,11,0.00
2013-2-8,59,41,26,32,24,19,85,55,21,30.12,29.60,21,2,21,0.00
2013-2-9,44,36,30,31,27,21,91,70,45,29.81,29.60,12,1,15,0.00
2013-2-10,43,33,26,29,25,22,92,76,46,29.99,29.81,7,0,8,0.04
2013-2-11,36,30,21,28,24,18,91,80,58,30.26,29.98,8,1,8,0.11
2013-2-12,40,26,14,18,14,10,90,64,30,30.45,30.26,7,1,7,0.00
2013-2-13,43,31,19,24,20,15,90,65,37,30.46,30.29,11,0,11,0.00
2013-2-14,49,35,26,28,23,21,86,66,34,30.39,30.30,8,0,8,0.00
2013-2-15,50,34,20,23,20,17,90,62,28,30.55,30.39,7,0,8,0.00
2013-2-16,52,35,25,21,18,16,74,53,26,30.56,30.23,8,1,8,0.00
2013-2-17,53,38,24,24,20,11,80,51,26,30.23,29.76,13,1,14,0.00
2013-2-18,45,34,22,17,13,8,69,43,25,30.20,29.96,9,1,9,0.00
2013-2-19,52,36,24,16,10,1,66,38,13,30.18,29.70,18,2,18,0.00
2013-2-20,53,40,29,30,20,13,73,46,25,29.70,29.52,9,1,10,0.00
2013-2-21,45,39,35,30,27,22,81,64,41,29.91,29.62,9,1,10,0.00
2013-2-22,41,32,23,29,24,16,90,74,41,30.17,29.91,11,1,11,0.02
2013-2-23,43,30,23,29,20,12,92,66,34,30.17,29.81,18,3,22,0.01
2013-2-24,36,28,22,27,21,14,90,73,52,30.24,29.94,11,2,11,0.11
2013-2-25,44,31,19,22,17,12,82,58,28,30.37,30.05,12,1,12,0.00
2013-2-26,42,33,25,27,20,13,91,62,31,30.32,29.99,14,2,14,0.06
2013-2-27,44,30,18,18,15,9,86,57,25,30.51,30.32,9,1,9,0.00
2013-2-28,48,33,22,19,14,10,70,48,26,30.61,30.45,13,1,13,0.00
2013-3-1,55,39,26,26,23,18,75,54,31,30.59,30.44,8,0,8,0.00
2013-3-2,61,43,28,28,26,22,78,53,27,30.55,30.16,11,1,11,0.00
2013-3-3,57,44,33,39,30,26,78,59,33,30.16,29.81,7,0,7,0.01
2013-3-4,53,42,26,42,29,8,94,64,18,30.27,29.78,23,1,26,0.03
2013-3-5,55,37,25,19,15,11,70,43,20,30.43,30.18,12,1,14,0.00
2013-3-6,66,47,30,26,21,16,64,38,19,30.18,29.82,15,1,15,0.00
2013-3-7,70,51,34,28,18,5,66,34,8,29.92,29.75,12,1,13,0.00
2013-3-8,56,47,39,41,28,15,90,53,23,29.77,29.58,13,1,13,0.13
2013-3-9,42,38,33,39,33,22,93,83,59,30.17,29.58,11,1,11,0.20
2013-3-10,53,40,30,26,22,19,73,51,29,30.35,30.17,9,1,9,0.00
2013-3-11,57,43,32,32,27,23,78,55,32,30.27,30.09,9,1,9,0.00
2013-3-12,62,48,36,35,31,28,83,57,29,30.26,30.14,9,0,10,0.01
2013-3-13,68,50,34,32,28,20,78,48,17,30.36,30.22,7,0,7,0.00
2013-3-14,73,54,37,31,28,24,67,42,17,30.33,30.11,10,1,10,0.00
2013-3-15,73,56,43,31,28,25,59,37,17,30.13,29.81,11,1,11,0.00
2013-3-16,66,55,46,40,35,30,63,48,29,29.82,29.66,15,2,17,0.00
2013-3-17,64,51,43,36,23,5,73,40,11,29.83,29.58,23,2,25,0.00
2013-3-18,60,46,31,20,14,4,58,30,11,30.01,29.83,17,2,18,0.00
2013-3-19,61,47,36,23,12,-4,53,29,7,30.17,29.97,9,0,10,0.01
2013-3-20,60,47,34,32,13,6,46,27,12,30.18,29.76,16,1,16,0.00
2013-3-21,58,47,37,43,28,2,93,54,12,29.86,29.59,16,1,22,0.39
2013-3-22,57,42,32,24,16,1,70,41,11,29.89,29.62,18,2,20,0.00
2013-3-23,45,35,27,16,6,0,47,31,17,30.23,29.88,18,2,21,0.00
2013-3-24,47,33,20,10,7,1,58,37,18,30.30,30.17,14,1,14,0.00
2013-3-25,53,36,22,10,6,0,56,32,12,30.39,30.19,9,1,9,0.00
2013-3-26,68,48,32,21,14,7,42,27,13,30.22,29.83,11,1,14,0.00
2013-3-27,73,54,34,26,20,10,60,31,11,29.97,29.81,8,1,8,0.00
2013-3-28,76,59,47,23,19,14,34,23,11,29.93,29.81,11,1,15,0.00
2013-3-29,77,59,42,31,26,21,52,31,13,30.01,29.89,18,1,20,0.00
2013-3-30,76,57,42,34,30,21,64,39,14,30.06,29.88,16,1,16,0.00
2013-3-31,78,58,41,31,24,4,62,33,6,30.00,29.77,13,1,13,0.00
2013-4-1,70,58,50,40,29,14,53,34,13,29.83,29.61,23,2,23,0.00
2013-4-2,65,50,40,39,34,29,74,55,28,29.96,29.73,17,1,17,0.00
2013-4-3,72,54,38,36,31,24,81,48,19,30.10,29.95,10,1,10,0.00
2013-4-4,76,59,43,29,25,20,50,30,13,30.09,29.84,11,1,11,0.00
2013-4-5,73,60,50,48,30,22,70,34,16,29.85,29.59,21,1,21,0.05
2013-4-6,72,56,41,38,32,18,77,45,15,29.88,29.71,15,1,16,0.00
2013-4-7,72,58,46,37,29,14,69,39,12,29.80,29.48,18,2,20,0.00
2013-4-8,69,55,46,44,29,18,79,40,19,29.49,29.13,20,3,24,0.06
2013-4-9,48,38,28,34,24,14,78,57,45,30.12,29.32,16,2,16,0.00
2013-4-10,54,38,26,24,13,8,54,37,18,30.27,30.06,13,1,13,0.00
2013-4-11,61,46,37,34,28,23,62,51,33,30.07,29.80,7,0,8,0.00
2013-4-12,72,54,40,36,26,10,74,40,10,29.89,29.73,9,0,10,0.00
2013-4-13,74,56,38,46,27,20,85,37,15,29.77,29.26,30,2,30,0.12
2013-4-14,63,52,41,46,21,6,89,36,11,29.68,29.43,17,2,17,0.13
2013-4-15,51,44,39,41,33,17,91,71,29,29.66,29.39,8,0,8,0.54
2013-4-16,58,44,33,42,36,31,92,77,48,29.85,29.52,18,1,18,0.11
2013-4-17,40,34,29,32,25,14,94,71,40,30.23,29.79,12,1,13,0.44
2013-4-18,47,36,28,22,18,12,71,49,25,30.38,30.23,11,1,11,0.00
2013-4-19,58,45,30,30,21,16,59,40,25,30.38,30.02,11,1,13,0.00
2013-4-20,65,52,44,43,35,30,81,54,33,30.02,29.87,15,1,15,0.02
2013-4-21,70,54,37,41,31,12,92,50,11,30.11,29.84,12,1,13,0.00
2013-4-22,73,59,42,35,28,16,71,34,12,29.84,29.61,23,2,23,0.00
2013-4-23,58,48,40,27,15,-2,46,28,11,30.05,29.80,15,2,16,0.00
2013-4-24,66,51,38,22,13,5,41,24,9,30.16,30.02,10,1,10,0.00
2013-4-25,76,56,40,23,17,6,42,24,7,30.04,29.75,16,1,16,0.00
2013-4-26,79,60,39,29,19,4,61,26,7,30.05,29.86,12,1,12,0.00
2013-4-27,81,62,43,28,20,5,52,25,6,30.12,29.88,11,1,14,0.00
2013-4-28,86,65,43,31,23,13,51,23,8,29.94,29.66,15,1,15,0.00
2013-4-29,85,68,48,33,26,12,55,25,7,29.71,29.42,16,1,17,0.00
2013-4-30,85,66,48,42,30,20,69,30,10,29.68,29.34,23,2,23,0.00
2013-5-1,63,51,40,42,24,-2,91,45,9,30.37,29.69,19,2,20,0.14
2013-5-2,64,50,33,23,14,5,58,27,10,30.56,30.33,7,1,14,0.00
2013-5-3,76,55,36,26,17,6,47,26,8,30.33,29.82,12,1,13,0.00
2013-5-4,81,61,42,28,19,4,47,24,6,29.83,29.61,13,1,14,0.00
2013-5-5,80,67,56,32,21,5,39,20,7,29.71,29.62,14,2,14,0.00
2013-5-6,73,60,50,48,38,18,89,49,19,29.86,29.66,15,1,15,0.08
2013-5-7,64,53,48,50,45,42,87,76,48,29.90,29.83,14,1,14,0.39
2013-5-8,58,51,44,48,44,41,93,78,55,30.01,29.84,12,0,12,0.20
2013-5-9,73,58,48,46,42,31,89,59,28,30.02,29.88,12,1,12,0.03
2013-5-10,75,60,44,50,39,32,85,51,22,30.07,29.94,18,1,23,0.02
2013-5-11,83,66,50,40,34,22,61,35,11,30.17,29.97,10,1,10,0.00
2013-5-12,88,69,53,43,36,28,57,34,12,30.08,29.87,11,1,11,0.00
2013-5-13,92,72,55,43,37,25,57,32,10,30.00,29.75,12,1,12,0.00
2013-5-14,94,76,61,42,38,29,45,27,11,29.78,29.56,18,2,20,0.00
2013-5-15,89,74,63,48,42,35,46,32,15,29.66,29.45,13,1,15,0.01
2013-5-16,90,71,56,46,39,24,64,36,11,29.67,29.48,15,1,15,0.00
2013-5-17,85,73,56,35,23,7,44,18,7,29.61,29.50,16,2,18,0.00
2013-5-18,71,62,52,51,39,30,66,44,24,29.76,29.59,17,1,18,0.12
2013-5-19,74,59,44,44,37,28,90,50,20,29.83,29.71,15,1,15,0.01
2013-5-20,71,58,44,50,40,35,81,53,33,29.94,29.79,18,0,18,0.05
2013-5-21,81,64,45,43,38,26,88,45,17,29.95,29.65,15,1,15,0.00
2013-5-22,88,72,57,37,28,15,44,23,7,29.65,29.39,18,2,18,0.00
2013-5-23,89,78,62,31,13,-12,30,10,2,29.53,29.37,24,3,25,0.00
2013-5-24,88,74,53,34,19,-3,46,16,3,29.70,29.47,16,1,17,0.00
2013-5-25,92,73,57,34,21,3,34,17,4,29.72,29.55,14,1,14,0.00
2013-5-26,90,73,51,42,23,-2,58,21,4,29.70,29.53,17,1,17,0.00
2013-5-27,90,72,53,33,23,14,45,18,7,29.66,29.45,24,1,24,0.00
2013-5-28,83,68,51,48,30,21,89,28,12,29.55,29.30,23,2,23,0.21
2013-5-29,75,61,47,50,38,23,94,52,16,29.61,29.50,19,1,19,0.00
2013-5-30,78,64,46,40,30,15,75,33,11,29.72,29.59,22,2,22,0.00
2013-5-31,82,67,56,35,21,-4,43,21,4,29.90,29.71,19,2,21,0.00
2013-6-1,82,66,46,38,27,17,55,26,10,30.03,29.82,13,0,13,0.00
2013-6-2,94,73,54,36,28,16,39,22,6,29.86,29.49,12,1,13,0.00
2013-6-3,94,78,62,39,29,16,33,19,6,29.60,29.44,19,1,19,0.00
2013-6-4,95,76,54,40,32,20,59,25,7,29.69,29.51,14,1,18,0.00
2013-6-5,92,75,55,40,32,20,55,23,8,29.73,29.60,12,1,14,0.00
2013-6-6,94,75,56,40,33,26,40,24,10,29.78,29.60,9,0,9,0.00
2013-6-7,96,77,58,44,36,26,46,26,9,29.72,29.49,11,0,12,0.00
2013-6-8,99,80,60,43,36,21,50,25,8,29.59,29.46,12,1,12,0.00
2013-6-9,101,81,59,44,36,24,55,24,7,29.72,29.53,9,1,10,0.00
2013-6-10,103,84,68,45,31,11,30,17,5,29.60,29.41,18,1,18,0.00
2013-6-11,95,83,64,34,22,13,27,12,5,29.65,29.46,21,2,21,0.00
2013-6-12,98,80,61,37,28,10,36,18,5,29.74,29.61,13,1,13,0.00
2013-6-13,97,83,70,42,29,20,32,15,7,29.66,29.43,23,2,23,0.00
2013-6-14,96,77,55,41,27,-9,53,21,2,29.69,29.51,15,1,19,0.00
2013-6-15,94,76,54,36,29,18,46,20,8,29.74,29.61,17,1,17,0.00
2013-6-16,94,79,68,51,40,34,37,26,14,29.76,29.59,11,1,11,0.00
2013-6-17,93,78,61,45,36,18,49,26,8,29.77,29.58,13,1,13,0.00
2013-6-18,96,81,66,40,25,-9,33,16,2,29.65,29.41,15,2,16,0.00
2013-6-19,95,81,65,28,9,-21,20,9,1,29.48,29.33,17,2,18,0.00
2013-6-20,96,76,53,35,24,2,49,19,3,29.60,29.42,14,1,14,0.00
2013-6-21,98,78,54,37,24,1,45,17,3,29.64,29.45,9,1,10,0.00
2013-6-22,94,79,63,33,22,0,24,14,4,29.57,29.46,19,1,20,0.00
2013-6-23,97,76,54,40,31,18,57,24,6,29.66,29.42,11,1,11,0.00
2013-6-24,90,79,66,35,23,14,26,13,7,29.53,29.44,17,2,21,0.00
2013-6-25,95,80,63,45,36,22,43,22,11,29.67,29.51,12,1,12,0.00
2013-6-26,103,82,63,47,39,29,40,24,8,29.77,29.64,9,1,10,0.00
2013-6-27,107,84,63,50,39,23,50,25,6,29.87,29.68,8,1,11,0.00
2013-6-28,109,86,67,47,39,9,41,23,4,29.82,29.62,18,1,18,0.00
2013-6-29,107,88,74,51,42,30,35,22,8,29.71,29.51,21,1,22,0.01
2013-6-30,103,84,66,48,45,32,50,28,11,29.74,29.53,11,0,11,0.00
2013-7-1,105,86,67,48,42,27,52,24,7,29.78,29.58,14,1,14,0.00
2013-7-2,102,86,69,51,40,27,42,22,8,29.74,29.54,14,1,14,0.00
2013-7-3,103,81,63,48,41,30,48,28,9,29.70,29.49,15,1,17,0.00
2013-7-4,98,82,70,61,48,39,59,32,14,29.65,29.44,10,0,10,0.00
2013-7-5,101,85,70,56,48,40,52,31,15,29.56,29.36,17,1,17,0.00
2013-7-6,98,84,71,56,49,42,52,31,18,29.61,29.43,14,1,18,0.00
2013-7-7,100,80,66,63,51,43,84,40,16,29.74,29.50,14,1,14,0.30
2013-7-8,100,81,62,60,51,30,82,44,10,29.81,29.67,11,1,15,0.00
2013-7-9,104,85,67,55,46,26,50,29,8,29.82,29.62,13,0,14,0.00
2013-7-10,106,86,70,52,42,27,47,24,7,29.73,29.49,10,1,12,0.00
2013-7-11,101,81,65,64,49,34,90,37,15,29.70,29.45,16,1,20,0.30
2013-7-12,93,78,66,66,60,52,89,57,26,29.70,29.58,15,2,18,0.01
2013-7-13,96,80,68,68,59,50,86,52,24,29.78,29.61,16,1,17,0.54
2013-7-14,96,82,70,59,55,45,66,42,19,29.80,29.59,12,1,12,0.00
2013-7-15,101,83,68,60,53,45,60,38,17,29.70,29.44,24,2,26,0.03
2013-7-16,95,81,66,63,58,50,79,48,25,29.72,29.56,12,1,14,0.00
2013-7-17,96,81,65,67,61,54,95,57,29,29.83,29.67,16,1,16,1.25
2013-7-18,100,78,66,62,58,51,83,55,23,29.87,29.61,19,2,21,0.09
2013-7-19,100,80,66,62,56,41,81,50,17,29.83,29.59,18,2,20,0.00
2013-7-20,102,84,71,59,51,36,57,36,12,29.69,29.44,11,1,13,0.00
2013-7-21,103,84,67,54,46,26,54,31,7,29.61,29.46,8,0,9,0.00
2013-7-22,104,84,68,56,48,31,60,33,9,29.67,29.49,6,0,6,0.00
2013-7-23,102,84,64,55,40,18,50,25,5,29.70,29.53,9,0,9,0.00
2013-7-24,94,81,69,54,48,43,55,34,19,29.73,29.62,19,2,21,0.00
2013-7-25,98,81,64,58,52,41,72,40,14,29.79,29.64,11,0,13,0.00
2013-7-26,102,83,67,52,47,35,53,32,12,29.85,29.63,9,0,9,0.00
2013-7-27,94,77,66,64,53,41,83,46,23,29.75,29.56,13,1,13,0.18
2013-7-28,85,72,64,64,60,53,92,69,38,29.75,29.60,13,1,14,0.32
2013-7-29,87,71,60,64,58,43,95,66,28,29.89,29.74,16,1,16,0.24
2013-7-30,95,77,60,57,51,37,80,46,17,30.01,29.84,13,1,13,0.00
2013-7-31,98,81,69,55,47,39,47,32,14,29.95,29.70,10,1,11,0.00
2013-8-1,77,71,64,63,54,44,87,60,35,29.89,29.70,10,2,13,0.12
2013-8-2,92,76,64,62,58,54,81,57,31,29.89,29.67,11,1,11,0.01
2013-8-3,92,79,67,62,56,49,71,46,24,29.82,29.69,16,1,25,0.00
2013-8-4,89,77,67,56,52,40,59,43,23,29.84,29.73,16,3,20,0.00
2013-8-5,93,78,68,60,54,47,70,45,27,29.84,29.66,10,1,12,0.00
2013-8-6,90,75,65,57,52,44,61,45,24,29.76,29.66,19,2,20,0.13
2013-8-7,87,73,64,55,52,43,66,49,24,29.79,29.68,19,1,19,0.00
2013-8-8,91,73,62,57,51,40,73,48,20,29.82,29.68,13,1,14,0.00
2013-8-9,91,73,62,58,50,41,76,48,19,29.87,29.73,17,2,19,0.04
2013-8-10,86,70,59,54,49,42,82,50,25,29.98,29.87,22,2,22,0.00
2013-8-11,90,72,57,52,48,40,76,48,19,30.03,29.78,11,1,13,0.00
2013-8-12,89,73,59,54,47,38,62,41,19,29.90,29.77,14,0,14,0.00
2013-8-13,95,75,59,54,46,32,66,39,12,29.94,29.76,11,1,11,0.00
2013-8-14,95,77,61,46,41,26,50,30,9,29.90,29.71,9,1,9,0.00
2013-8-15,100,78,61,44,37,15,45,25,7,29.86,29.70,9,1,10,0.00
2013-8-16,102,79,62,47,38,25,44,26,8,29.87,29.69,11,1,11,0.00
2013-8-17,99,80,66,52,42,33,49,28,11,29.83,29.68,21,1,21,0.00
2013-8-18,99,80,60,56,49,42,73,39,16,29.85,29.67,14,1,15,0.00
2013-8-19,101,83,67,53,47,37,49,31,12,29.81,29.57,13,1,14,0.00
2013-8-20,92,80,68,57,49,45,51,34,22,29.73,29.61,16,1,16,0.00
2013-8-21,99,80,63,57,49,40,66,37,15,29.83,29.65,12,1,12,0.00
2013-8-22,95,80,70,58,52,47,60,39,23,29.82,29.65,8,0,9,0.00
2013-8-23,93,74,63,62,55,50,85,53,28,29.73,29.61,20,1,20,0.49
2013-8-24,91,76,64,58,54,47,74,49,25,29.84,29.71,13,0,16,0.00
2013-8-25,71,66,62,64,60,55,94,83,65,30.00,29.83,7,0,7,0.61
2013-8-26,81,70,62,66,63,60,97,79,52,30.03,29.88,8,0,8,0.04
2013-8-27,89,72,62,66,62,59,94,75,40,29.94,29.75,14,0,14,0.00
2013-8-28,95,76,60,63,57,48,91,58,21,29.87,29.71,9,0,9,0.00
2013-8-29,98,80,64,59,54,45,72,45,18,29.88,29.73,8,0,8,0.00
2013-8-30,98,82,69,57,52,42,64,38,15,29.82,29.65,10,1,10,0.00
2013-8-31,96,82,70,58,54,48,60,40,20,29.77,29.59,13,1,15,0.00
2013-9-1,97,81,67,60,55,51,66,43,24,29.74,29.58,10,1,12,0.00
2013-9-2,94,80,69,62,56,53,61,45,27,29.79,29.61,11,1,11,0.00
2013-9-3,97,80,65,64,54,49,63,43,20,29.82,29.68,8,0,8,0.00
2013-9-4,101,83,68,58,54,45,71,41,17,29.86,29.67,13,0,13,0.00
2013-9-5,98,83,73,59,53,49,51,37,20,29.82,29.64,13,1,13,0.00
2013-9-6,100,83,69,56,51,40,61,36,15,29.83,29.60,11,1,11,0.00
2013-9-7,99,84,71,53,48,42,48,31,15,29.75,29.53,14,1,16,0.00
2013-9-8,90,73,65,65,57,50,92,61,31,29.70,29.59,13,0,16,0.22
2013-9-9,65,62,59,62,60,57,95,92,85,29.84,29.69,9,0,12,0.94
2013-9-10,66,63,60,63,61,59,96,94,86,29.88,29.80,4,0,5,0.17
2013-9-11,80,67,62,64,61,57,97,81,46,29.94,29.81,10,0,10,0.08
2013-9-12,85,70,60,62,58,54,90,67,40,29.91,29.72,18,1,18,0.00
2013-9-13,83,70,62,59,56,51,82,64,36,29.81,29.59,14,1,14,0.03
2013-9-14,73,64,59,60,57,54,95,80,55,29.79,29.66,14,1,15,0.28
2013-9-15,79,67,56,58,55,53,94,68,43,29.90,29.79,7,0,7,0.00
2013-9-16,86,71,60,59,55,51,81,60,35,29.93,29.75,11,1,11,0.00
2013-9-17,79,68,62,64,55,49,84,63,37,29.79,29.55,15,1,15,0.13
2013-9-18,86,72,60,59,54,45,91,57,24,29.64,29.51,17,2,19,0.03
2013-9-19,78,65,52,52,40,20,91,47,13,29.87,29.64,13,1,14,0.00
2013-9-20,83,65,50,46,36,29,57,37,17,29.97,29.77,14,2,14,0.00
2013-9-21,87,72,61,49,41,36,49,33,19,29.79,29.49,23,5,23,0.00
2013-9-22,72,63,51,53,48,42,91,62,34,29.62,29.34,32,7,35,0.63
2013-9-23,70,58,49,50,44,35,93,65,28,30.01,29.62,13,1,14,0.01
2013-9-24,78,61,49,46,40,32,71,50,21,30.06,29.69,25,5,27,0.00
2013-9-25,82,71,58,38,32,24,46,26,12,29.68,29.25,40,7,40,0.00
2013-9-26,80,73,62,39,30,23,41,21,13,29.43,29.28,42,10,42,0.00
2013-9-27,62,53,45,50,38,23,89,61,24,30.07,29.40,30,4,30,0.14
2013-9-28,63,50,39,37,34,28,82,58,27,30.27,30.07,12,2,13,0.00
2013-9-29,74,56,42,43,35,28,78,50,22,30.19,29.91,19,2,20,0.00
2013-9-30,81,62,50,43,36,31,69,40,18,29.93,29.72,16,2,16,0.00
2013-10-1,79,64,51,43,37,30,75,41,18,29.87,29.70,16,2,16,0.00
2013-10-2,79,64,51,42,34,29,65,35,19,29.82,29.62,18,3,18,0.00
2013-10-3,75,59,37,41,34,29,90,44,22,29.87,29.41,32,6,32,0.31
2013-10-4,48,40,35,36,32,24,93,72,44,30.40,29.87,21,2,21,0.09
2013-10-5,58,45,36,34,29,25,78,55,32,30.49,30.37,12,1,12,0.00
2013-10-6,66,49,36,40,32,28,77,55,27,30.46,30.23,15,2,15,0.00
2013-10-7,68,54,41,42,36,33,77,53,29,30.24,29.90,15,2,15,0.00
2013-10-8,75,58,44,43,37,28,86,51,20,29.91,29.62,17,1,17,0.00
2013-10-9,71,61,51,38,31,21,59,34,16,29.67,29.55,23,4,23,0.00
2013-10-10,65,51,44,47,43,33,93,76,31,29.77,29.53,18,1,25,0.44
2013-10-11,63,51,43,46,43,39,95,76,43,30.01,29.76,6,0,7,0.02
2013-10-12,69,52,43,42,39,35,90,64,31,30.07,29.92,16,2,16,0.00
2013-10-13,75,57,44,45,39,33,80,54,22,29.95,29.71,21,1,26,0.01
2013-10-14,57,48,41,45,41,39,93,77,56,30.11,29.79,15,1,15,0.05
2013-10-15,55,45,38,42,36,30,92,73,42,30.15,30.06,19,1,19,0.02
2013-10-16,61,44,32,33,29,23,87,60,26,30.25,30.13,8,0,9,0.00
2013-10-17,64,47,35,35,31,26,82,57,26,30.18,29.95,8,1,9,0.00
2013-10-18,60,46,34,35,28,20,91,57,22,30.22,29.98,10,1,10,0.00
2013-10-19,60,45,34,32,26,22,75,50,26,30.26,30.08,15,1,15,0.00
2013-10-20,61,47,34,35,30,26,85,56,31,30.09,29.92,9,1,9,0.00
2013-10-21,65,49,35,34,31,24,86,55,23,30.19,30.00,10,1,10,0.00
2013-10-22,68,50,38,34,29,26,71,47,22,30.27,30.10,14,2,14,0.00
2013-10-23,70,52,39,35,31,26,70,48,20,30.19,30.02,14,2,14,0.00
2013-10-24,70,54,40,36,31,27,70,46,23,30.14,29.99,13,2,13,0.00
2013-10-25,68,53,40,38,35,30,83,54,27,30.15,30.04,14,1,14,0.00
2013-10-26,72,53,42,38,35,29,83,54,22,30.26,30.10,14,1,14,0.00
2013-10-27,66,52,40,36,33,29,72,49,30,30.12,29.69,17,2,18,0.00
2013-10-28,71,61,48,33,26,18,55,29,14,29.69,29.48,34,8,34,0.00
2013-10-29,62,48,39,41,36,23,95,68,22,29.87,29.56,41,6,41,0.32
2013-10-30,48,41,39,39,37,34,93,85,62,30.03,29.87,18,1,18,0.07
2013-10-31,50,42,37,39,36,34,95,82,56,30.18,30.03,9,0,9,0.00
2013-11-1,59,45,33,36,33,27,93,68,32,30.32,30.14,9,1,9,0.00
2013-11-2,59,45,37,35,31,27,81,59,32,30.32,29.90,22,4,22,0.00
2013-11-3,65,46,34,36,29,13,90,58,19,29.97,29.63,31,3,31,0.00
2013-11-4,45,38,31,31,21,11,90,52,35,30.06,29.89,17,2,17,0.01
2013-11-5,45,36,30,32,20,9,90,57,24,30.42,30.06,16,2,16,0.00
2013-11-6,51,36,27,23,19,14,79,52,26,30.59,30.42,11,1,11,0.00
2013-11-7,58,41,27,30,24,20,79,55,27,30.62,30.22,9,1,10,0.00
2013-11-8,60,43,30,30,28,25,85,57,27,30.22,30.03,12,1,12,0.00
2013-11-9,62,45,32,30,27,25,81,53,26,30.24,30.14,12,1,12,0.00
2013-11-10,63,47,36,29,26,24,70,48,24,30.33,30.19,12,2,12,0.00
2013-11-11,64,46,34,29,26,24,73,49,22,30.42,30.29,12,1,14,0.00
2013-11-12,66,48,36,29,26,24,65,46,21,30.54,30.36,14,2,16,0.00
2013-11-13,55,44,33,31,26,22,74,50,30,30.41,30.14,11,1,11,0.00
2013-11-14,59,45,32,31,27,21,84,53,24,30.17,29.80,10,1,10,0.00
2013-11-15,60,42,29,36,27,23,78,58,30,29.81,29.55,27,3,27,0.00
2013-11-16,50,40,32,38,33,28,90,78,51,29.74,29.52,21,2,21,0.03
2013-11-17,56,41,31,36,32,28,94,73,41,30.21,29.74,12,1,12,0.01
2013-11-18,59,43,33,30,28,26,82,59,30,30.32,30.11,20,2,20,0.00
2013-11-19,48,41,34,36,28,24,78,60,48,30.11,29.90,12,2,13,0.00
2013-11-20,50,43,33,40,36,30,96,77,59,29.97,29.82,8,0,8,0.07
2013-11-21,49,41,35,43,37,23,95,85,60,30.29,29.89,13,2,13,0.18
2013-11-22,38,34,33,32,26,20,94,72,56,30.40,30.28,18,3,18,0.01
2013-11-23,43,36,33,37,34,32,95,91,80,30.41,30.23,6,0,6,0.91
2013-11-24,41,37,35,38,35,34,96,92,86,30.25,30.12,10,1,10,0.16
2013-11-25,47,36,30,35,31,28,97,82,48,30.46,30.18,9,2,9,0.01
2013-11-26,48,36,28,31,28,26,93,74,45,30.55,30.42,14,2,14,0.00
2013-11-27,49,36,28,31,28,25,91,75,46,30.47,30.26,8,1,8,0.00
2013-11-28,42,35,30,33,30,27,92,83,62,30.39,30.27,14,2,14,0.00
2013-11-29,38,36,33,32,31,30,93,83,72,30.50,30.39,8,1,8,0.00
2013-11-30,39,36,35,31,30,28,82,76,67,30.52,30.40,10,2,10,0.00
2013-12-1,39,36,34,30,29,28,83,76,68,30.51,30.36,11,2,11,0.00
2013-12-2,36,35,33,33,30,29,96,85,79,30.38,29.89,8,1,8,0.01
2013-12-3,41,36,30,36,30,28,93,81,70,29.90,29.47,18,2,19,0.10
2013-12-4,30,20,8,28,18,2,94,89,77,30.29,29.48,18,2,20,0.04
2013-12-5,24,11,3,10,4,0,85,74,53,30.38,30.26,13,2,13,0.04
2013-12-6,23,10,0,12,4,-3,88,79,59,30.54,30.39,6,1,6,0.01
2013-12-7,25,20,10,21,15,7,91,82,68,30.49,29.89,15,2,15,0.00
2013-12-8,23,18,6,21,12,2,92,79,58,30.37,29.88,15,2,15,0.00
2013-12-9,23,10,2,11,4,-2,88,75,51,30.92,30.37,8,1,8,0.00
2013-12-10,22,9,-3,8,2,-7,86,73,51,30.94,30.77,8,0,8,0.00
2013-12-11,27,14,6,12,7,2,87,75,51,30.94,30.80,5,0,7,0.00
2013-12-12,22,11,2,13,6,-2,88,79,65,30.95,30.60,10,1,10,0.00
2013-12-13,22,12,2,13,7,-2,89,81,66,30.70,30.47,11,1,11,0.00
2013-12-14,33,16,5,20,10,2,88,79,56,30.89,30.70,8,0,8,0.00
2013-12-15,34,20,9,22,14,6,89,79,59,30.85,30.71,7,1,8,0.02
2013-12-16,34,20,10,23,15,7,90,81,60,30.81,30.69,9,1,9,0.00
2013-12-17,35,20,10,24,15,7,90,81,62,30.86,30.63,8,0,8,0.00
2013-12-18,30,21,10,23,17,7,91,84,71,30.63,30.12,13,1,13,0.00
2013-12-19,40,28,20,28,23,18,90,81,61,30.15,29.84,10,1,10,0.00
2013-12-20,35,28,21,29,24,18,92,86,77,29.93,29.86,10,1,12,0.00
2013-12-21,30,23,18,26,21,15,100,90,83,30.21,29.85,9,1,9,0.03
2013-12-22,29,20,12,24,17,9,94,86,73,30.58,30.21,11,1,11,0.00
2013-12-23,36,25,15,24,19,12,90,80,58,30.75,30.57,12,1,12,0.00
2013-12-24,39,25,16,27,20,14,91,82,60,30.68,30.49,7,0,8,0.00
2013-12-25,40,24,15,20,16,12,90,72,38,30.78,30.67,9,2,9,0.00
2013-12-26,37,22,11,18,14,7,88,71,40,30.75,30.63,12,1,12,0.00
2013-12-27,40,23,12,22,16,8,88,74,43,30.74,30.51,10,1,10,0.00
2013-12-28,29,21,13,21,16,10,89,82,70,30.51,30.25,11,1,11,0.00
2013-12-29,40,25,15,20,16,13,89,71,37,30.51,30.36,8,1,8,0.00
2013-12-30,40,24,14,24,17,10,88,75,46,30.62,30.46,10,1,10,0.00
2013-12-31,39,28,19,24,20,15,87,74,51,30.57,30.35,8,1,8,0.00
2014-1-1,44,29,21,25,22,18,89,76,45,30.54,30.33,12,1,14,0.00
2014-1-2,45,27,15,23,18,12,91,72,35,30.62,30.44,8,0,8,0.00